sensor_id;sensor_type;location;lat;lon;timestamp;P1;durP1;ratioP1;P2;durP2;ratioP2
72761;SDS011;60886;55.034;73.150;2023-11-18T00:01:15;21.97;;;8.80;;
72761;SDS011;60886;55.034;73.150;2023-11-18T00:04:22;21.52;;;8.30;;
72761;SDS011;60886;55.034;73.150;2023-11-18T00:07:23;24.25;;;10.20;;
72761;SDS011;60886;55.034;73.150;2023-11-18T00:10:25;25.13;;;9.77;;
72761;SDS011;60886;55.034;73.150;2023-11-18T00:13:26;24.45;;;9.95;;
72761;SDS011;60886;55.034;73.150;2023-11-18T00:16:28;25.33;;;9.53;;
72761;SDS011;60886;55.034;73.150;2023-11-18T00:19:30;21.07;;;8.50;;
72761;SDS011;60886;55.034;73.150;2023-11-18T00:22:31;22.25;;;8.68;;
72761;SDS011;60886;55.034;73.150;2023-11-18T00:25:33;23.43;;;8.93;;
72761;SDS011;60886;55.034;73.150;2023-11-18T00:28:37;22.83;;;9.20;;
72761;SDS011;60886;55.034;73.150;2023-11-18T00:31:38;22.80;;;8.90;;
72761;SDS011;60886;55.034;73.150;2023-11-18T00:34:40;21.73;;;8.43;;
72761;SDS011;60886;55.034;73.150;2023-11-18T00:37:41;20.58;;;8.15;;
72761;SDS011;60886;55.034;73.150;2023-11-18T00:40:43;22.05;;;8.70;;
72761;SDS011;60886;55.034;73.150;2023-11-18T00:43:44;22.33;;;7.67;;
72761;SDS011;60886;55.034;73.150;2023-11-18T00:46:46;23.95;;;8.65;;
72761;SDS011;60886;55.034;73.150;2023-11-18T00:49:47;20.33;;;7.60;;
72761;SDS011;60886;55.034;73.150;2023-11-18T00:52:50;29.48;;;9.52;;
72761;SDS011;60886;55.034;73.150;2023-11-18T00:55:51;27.63;;;9.60;;
72761;SDS011;60886;55.034;73.150;2023-11-18T00:58:52;32.15;;;11.18;;
72761;SDS011;60886;55.034;73.150;2023-11-18T01:01:54;33.30;;;11.07;;
72761;SDS011;60886;55.034;73.150;2023-11-18T01:05:06;35.87;;;12.13;;
72761;SDS011;60886;55.034;73.150;2023-11-18T01:08:08;28.73;;;10.77;;
72761;SDS011;60886;55.034;73.150;2023-11-18T01:11:09;35.60;;;12.03;;
72761;SDS011;60886;55.034;73.150;2023-11-18T01:14:11;41.67;;;16.30;;
72761;SDS011;60886;55.034;73.150;2023-11-18T01:17:12;34.53;;;13.07;;
72761;SDS011;60886;55.034;73.150;2023-11-18T01:20:14;28.80;;;11.13;;
72761;SDS011;60886;55.034;73.150;2023-11-18T01:23:21;29.33;;;10.85;;
72761;SDS011;60886;55.034;73.150;2023-11-18T01:26:23;33.07;;;12.40;;
72761;SDS011;60886;55.034;73.150;2023-11-18T01:29:24;33.92;;;10.98;;
72761;SDS011;60886;55.034;73.150;2023-11-18T01:32:26;27.95;;;9.60;;
72761;SDS011;60886;55.034;73.150;2023-11-18T01:35:30;22.60;;;8.57;;
72761;SDS011;60886;55.034;73.150;2023-11-18T01:38:32;19.98;;;7.53;;
72761;SDS011;60886;55.034;73.150;2023-11-18T01:41:33;21.70;;;7.63;;
72761;SDS011;60886;55.034;73.150;2023-11-18T01:44:35;20.17;;;7.35;;
72761;SDS011;60886;55.034;73.150;2023-11-18T01:47:36;17.48;;;6.78;;
72761;SDS011;60886;55.034;73.150;2023-11-18T01:50:37;17.60;;;6.93;;
72761;SDS011;60886;55.034;73.150;2023-11-18T01:53:42;17.83;;;6.37;;
72761;SDS011;60886;55.034;73.150;2023-11-18T01:56:46;15.50;;;6.40;;
72761;SDS011;60886;55.034;73.150;2023-11-18T01:59:49;16.45;;;6.40;;
72761;SDS011;60886;55.034;73.150;2023-11-18T02:02:50;13.50;;;5.70;;
72761;SDS011;60886;55.034;73.150;2023-11-18T02:05:52;14.20;;;5.43;;
72761;SDS011;60886;55.034;73.150;2023-11-18T02:08:54;15.30;;;5.93;;
72761;SDS011;60886;55.034;73.150;2023-11-18T02:15:05;18.93;;;6.33;;
72761;SDS011;60886;55.034;73.150;2023-11-18T02:18:11;15.90;;;6.00;;
72761;SDS011;60886;55.034;73.150;2023-11-18T02:21:33;14.17;;;5.60;;
72761;SDS011;60886;55.034;73.150;2023-11-18T02:24:37;17.02;;;6.10;;
72761;SDS011;60886;55.034;73.150;2023-11-18T02:27:39;15.17;;;5.77;;
72761;SDS011;60886;55.034;73.150;2023-11-18T02:30:41;13.82;;;6.07;;
72761;SDS011;60886;55.034;73.150;2023-11-18T02:33:45;13.10;;;5.07;;
72761;SDS011;60886;55.034;73.150;2023-11-18T02:36:50;12.40;;;5.30;;
72761;SDS011;60886;55.034;73.150;2023-11-18T02:39:53;13.45;;;4.75;;
72761;SDS011;60886;55.034;73.150;2023-11-18T02:43:05;13.00;;;4.82;;
72761;SDS011;60886;55.034;73.150;2023-11-18T02:46:07;12.32;;;4.70;;
72761;SDS011;60886;55.034;73.150;2023-11-18T02:49:10;11.10;;;4.25;;
72761;SDS011;60886;55.034;73.150;2023-11-18T02:52:11;11.43;;;4.37;;
72761;SDS011;60886;55.034;73.150;2023-11-18T02:55:13;12.93;;;5.05;;
72761;SDS011;60886;55.034;73.150;2023-11-18T02:58:14;12.45;;;4.88;;
72761;SDS011;60886;55.034;73.150;2023-11-18T03:01:18;14.37;;;4.43;;
72761;SDS011;60886;55.034;73.150;2023-11-18T03:04:22;13.90;;;4.72;;
72761;SDS011;60886;55.034;73.150;2023-11-18T03:07:24;12.68;;;4.70;;
72761;SDS011;60886;55.034;73.150;2023-11-18T03:10:29;13.23;;;4.95;;
72761;SDS011;60886;55.034;73.150;2023-11-18T03:13:30;15.27;;;5.90;;
72761;SDS011;60886;55.034;73.150;2023-11-18T03:16:33;17.40;;;6.30;;
72761;SDS011;60886;55.034;73.150;2023-11-18T03:19:34;17.52;;;6.20;;
72761;SDS011;60886;55.034;73.150;2023-11-18T03:22:36;17.80;;;6.57;;
72761;SDS011;60886;55.034;73.150;2023-11-18T03:25:38;111.93;;;37.05;;
72761;SDS011;60886;55.034;73.150;2023-11-18T03:28:40;21.30;;;7.68;;
72761;SDS011;60886;55.034;73.150;2023-11-18T03:31:41;16.53;;;5.83;;
72761;SDS011;60886;55.034;73.150;2023-11-18T03:34:45;13.37;;;4.47;;
72761;SDS011;60886;55.034;73.150;2023-11-18T03:37:46;13.90;;;4.35;;
72761;SDS011;60886;55.034;73.150;2023-11-18T03:40:48;13.93;;;4.35;;
72761;SDS011;60886;55.034;73.150;2023-11-18T03:43:49;11.80;;;4.47;;
72761;SDS011;60886;55.034;73.150;2023-11-18T03:46:51;11.73;;;4.50;;
72761;SDS011;60886;55.034;73.150;2023-11-18T03:49:52;11.50;;;3.95;;
72761;SDS011;60886;55.034;73.150;2023-11-18T03:52:56;13.55;;;4.78;;
72761;SDS011;60886;55.034;73.150;2023-11-18T03:56:00;14.52;;;5.50;;
72761;SDS011;60886;55.034;73.150;2023-11-18T03:59:01;11.77;;;4.50;;
72761;SDS011;60886;55.034;73.150;2023-11-18T04:02:05;11.98;;;4.72;;
72761;SDS011;60886;55.034;73.150;2023-11-18T04:05:07;15.33;;;4.97;;
72761;SDS011;60886;55.034;73.150;2023-11-18T04:08:09;24.08;;;6.90;;
72761;SDS011;60886;55.034;73.150;2023-11-18T04:11:14;29.70;;;7.03;;
72761;SDS011;60886;55.034;73.150;2023-11-18T04:14:22;19.02;;;5.84;;
72761;SDS011;60886;55.034;73.150;2023-11-18T04:17:23;14.10;;;4.95;;
72761;SDS011;60886;55.034;73.150;2023-11-18T04:20:28;14.23;;;4.82;;
72761;SDS011;60886;55.034;73.150;2023-11-18T04:23:30;17.90;;;4.23;;
72761;SDS011;60886;55.034;73.150;2023-11-18T04:26:33;10.82;;;3.75;;
72761;SDS011;60886;55.034;73.150;2023-11-18T04:29:35;15.93;;;3.90;;
72761;SDS011;60886;55.034;73.150;2023-11-18T04:32:37;9.60;;;3.25;;
72761;SDS011;60886;55.034;73.150;2023-11-18T04:35:38;12.33;;;3.40;;
72761;SDS011;60886;55.034;73.150;2023-11-18T04:38:39;14.45;;;3.83;;
72761;SDS011;60886;55.034;73.150;2023-11-18T04:41:42;12.40;;;3.92;;
72761;SDS011;60886;55.034;73.150;2023-11-18T04:44:43;14.70;;;4.57;;
72761;SDS011;60886;55.034;73.150;2023-11-18T04:47:44;18.80;;;4.80;;
72761;SDS011;60886;55.034;73.150;2023-11-18T04:50:46;13.03;;;4.33;;
72761;SDS011;60886;55.034;73.150;2023-11-18T04:53:48;16.10;;;5.70;;
72761;SDS011;60886;55.034;73.150;2023-11-18T04:56:49;13.20;;;4.57;;
72761;SDS011;60886;55.034;73.150;2023-11-18T04:59:51;16.05;;;4.55;;
72761;SDS011;60886;55.034;73.150;2023-11-18T05:02:52;11.98;;;4.07;;
72761;SDS011;60886;55.034;73.150;2023-11-18T05:05:53;14.23;;;4.70;;
72761;SDS011;60886;55.034;73.150;2023-11-18T05:08:55;10.83;;;4.37;;
72761;SDS011;60886;55.034;73.150;2023-11-18T05:11:57;16.45;;;4.95;;
72761;SDS011;60886;55.034;73.150;2023-11-18T05:14:59;16.83;;;4.73;;
72761;SDS011;60886;55.034;73.150;2023-11-18T05:18:01;13.70;;;5.43;;
72761;SDS011;60886;55.034;73.150;2023-11-18T05:21:03;12.85;;;4.28;;
72761;SDS011;60886;55.034;73.150;2023-11-18T05:24:06;13.03;;;4.17;;
72761;SDS011;60886;55.034;73.150;2023-11-18T05:27:08;9.23;;;3.35;;
72761;SDS011;60886;55.034;73.150;2023-11-18T05:30:09;11.52;;;3.33;;
72761;SDS011;60886;55.034;73.150;2023-11-18T05:33:11;14.30;;;5.93;;
72761;SDS011;60886;55.034;73.150;2023-11-18T05:36:18;12.02;;;3.10;;
72761;SDS011;60886;55.034;73.150;2023-11-18T05:39:27;11.05;;;2.70;;
72761;SDS011;60886;55.034;73.150;2023-11-18T05:42:34;9.18;;;2.90;;
72761;SDS011;60886;55.034;73.150;2023-11-18T05:45:37;7.43;;;2.90;;
72761;SDS011;60886;55.034;73.150;2023-11-18T05:48:56;11.10;;;2.97;;
72761;SDS011;60886;55.034;73.150;2023-11-18T05:51:58;9.13;;;2.90;;
72761;SDS011;60886;55.034;73.150;2023-11-18T05:54:59;11.17;;;3.47;;
72761;SDS011;60886;55.034;73.150;2023-11-18T05:58:01;9.50;;;3.50;;
72761;SDS011;60886;55.034;73.150;2023-11-18T06:01:02;11.82;;;3.47;;
72761;SDS011;60886;55.034;73.150;2023-11-18T06:04:04;8.60;;;3.10;;
72761;SDS011;60886;55.034;73.150;2023-11-18T06:07:09;11.10;;;2.90;;
72761;SDS011;60886;55.034;73.150;2023-11-18T06:10:10;8.00;;;2.03;;
72761;SDS011;60886;55.034;73.150;2023-11-18T06:13:13;7.25;;;1.90;;
72761;SDS011;60886;55.034;73.150;2023-11-18T06:16:15;9.60;;;2.50;;
72761;SDS011;60886;55.034;73.150;2023-11-18T06:19:22;7.05;;;2.10;;
72761;SDS011;60886;55.034;73.150;2023-11-18T06:22:23;8.73;;;2.65;;
72761;SDS011;60886;55.034;73.150;2023-11-18T06:25:25;10.15;;;2.65;;
72761;SDS011;60886;55.034;73.150;2023-11-18T06:28:27;8.43;;;2.80;;
72761;SDS011;60886;55.034;73.150;2023-11-18T06:31:29;10.23;;;3.57;;
72761;SDS011;60886;55.034;73.150;2023-11-18T06:34:31;6.87;;;2.40;;
72761;SDS011;60886;55.034;73.150;2023-11-18T06:37:33;8.80;;;3.10;;
72761;SDS011;60886;55.034;73.150;2023-11-18T06:40:35;10.83;;;3.20;;
72761;SDS011;60886;55.034;73.150;2023-11-18T06:43:37;9.30;;;2.60;;
72761;SDS011;60886;55.034;73.150;2023-11-18T06:46:55;11.00;;;3.10;;
72761;SDS011;60886;55.034;73.150;2023-11-18T06:49:56;7.72;;;2.47;;
72761;SDS011;60886;55.034;73.150;2023-11-18T06:52:58;10.45;;;2.83;;
72761;SDS011;60886;55.034;73.150;2023-11-18T06:55:59;7.57;;;2.30;;
72761;SDS011;60886;55.034;73.150;2023-11-18T06:59:01;11.85;;;2.70;;
72761;SDS011;60886;55.034;73.150;2023-11-18T07:02:02;7.87;;;2.20;;
72761;SDS011;60886;55.034;73.150;2023-11-18T07:05:06;9.25;;;2.00;;
72761;SDS011;60886;55.034;73.150;2023-11-18T07:08:08;8.73;;;2.47;;
72761;SDS011;60886;55.034;73.150;2023-11-18T07:11:10;9.20;;;2.03;;
72761;SDS011;60886;55.034;73.150;2023-11-18T07:14:11;7.87;;;2.10;;
72761;SDS011;60886;55.034;73.150;2023-11-18T07:17:13;10.75;;;3.85;;
72761;SDS011;60886;55.034;73.150;2023-11-18T07:20:15;6.60;;;1.97;;
72761;SDS011;60886;55.034;73.150;2023-11-18T07:23:16;8.88;;;1.80;;
72761;SDS011;60886;55.034;73.150;2023-11-18T07:26:18;6.67;;;2.00;;
72761;SDS011;60886;55.034;73.150;2023-11-18T07:29:22;10.65;;;2.20;;
72761;SDS011;60886;55.034;73.150;2023-11-18T07:32:24;8.00;;;2.37;;
72761;SDS011;60886;55.034;73.150;2023-11-18T07:35:25;8.35;;;2.35;;
72761;SDS011;60886;55.034;73.150;2023-11-18T07:38:28;7.32;;;2.72;;
72761;SDS011;60886;55.034;73.150;2023-11-18T07:41:32;8.63;;;2.53;;
72761;SDS011;60886;55.034;73.150;2023-11-18T07:44:34;12.67;;;3.10;;
72761;SDS011;60886;55.034;73.150;2023-11-18T07:47:35;9.05;;;2.50;;
72761;SDS011;60886;55.034;73.150;2023-11-18T07:50:37;11.23;;;2.40;;
72761;SDS011;60886;55.034;73.150;2023-11-18T07:53:42;8.88;;;2.42;;
72761;SDS011;60886;55.034;73.150;2023-11-18T07:56:43;9.10;;;2.30;;
72761;SDS011;60886;55.034;73.150;2023-11-18T07:59:48;8.00;;;2.20;;
72761;SDS011;60886;55.034;73.150;2023-11-18T08:02:49;7.22;;;2.40;;
72761;SDS011;60886;55.034;73.150;2023-11-18T08:05:55;9.30;;;2.60;;
72761;SDS011;60886;55.034;73.150;2023-11-18T08:08:56;8.07;;;2.28;;
72761;SDS011;60886;55.034;73.150;2023-11-18T08:11:58;7.40;;;2.80;;
72761;SDS011;60886;55.034;73.150;2023-11-18T08:15:00;6.77;;;2.00;;
72761;SDS011;60886;55.034;73.150;2023-11-18T08:18:04;6.50;;;2.10;;
72761;SDS011;60886;55.034;73.150;2023-11-18T08:21:07;7.93;;;2.07;;
72761;SDS011;60886;55.034;73.150;2023-11-18T08:24:09;9.68;;;2.45;;
72761;SDS011;60886;55.034;73.150;2023-11-18T08:27:10;7.87;;;1.93;;
72761;SDS011;60886;55.034;73.150;2023-11-18T08:30:12;6.17;;;1.60;;
72761;SDS011;60886;55.034;73.150;2023-11-18T08:33:14;5.63;;;1.70;;
72761;SDS011;60886;55.034;73.150;2023-11-18T08:36:16;6.63;;;1.80;;
72761;SDS011;60886;55.034;73.150;2023-11-18T08:39:21;6.28;;;1.83;;
72761;SDS011;60886;55.034;73.150;2023-11-18T08:42:26;6.60;;;1.40;;
72761;SDS011;60886;55.034;73.150;2023-11-18T08:45:28;5.30;;;1.45;;
72761;SDS011;60886;55.034;73.150;2023-11-18T08:48:31;6.18;;;1.60;;
72761;SDS011;60886;55.034;73.150;2023-11-18T08:51:35;6.03;;;1.40;;
72761;SDS011;60886;55.034;73.150;2023-11-18T08:54:38;7.30;;;1.50;;
72761;SDS011;60886;55.034;73.150;2023-11-18T08:58:00;7.28;;;1.70;;
72761;SDS011;60886;55.034;73.150;2023-11-18T09:01:05;7.17;;;1.70;;
72761;SDS011;60886;55.034;73.150;2023-11-18T09:04:22;7.13;;;1.61;;
72761;SDS011;60886;55.034;73.150;2023-11-18T09:07:24;4.70;;;1.20;;
72761;SDS011;60886;55.034;73.150;2023-11-18T09:10:26;5.93;;;1.50;;
72761;SDS011;60886;55.034;73.150;2023-11-18T09:13:29;6.22;;;1.40;;
72761;SDS011;60886;55.034;73.150;2023-11-18T09:16:30;5.45;;;1.60;;
72761;SDS011;60886;55.034;73.150;2023-11-18T09:19:34;7.73;;;1.87;;
72761;SDS011;60886;55.034;73.150;2023-11-18T09:22:35;28.40;;;8.80;;
72761;SDS011;60886;55.034;73.150;2023-11-18T09:25:37;7.47;;;2.57;;
72761;SDS011;60886;55.034;73.150;2023-11-18T09:28:41;6.43;;;2.13;;
72761;SDS011;60886;55.034;73.150;2023-11-18T09:31:42;7.17;;;2.00;;
72761;SDS011;60886;55.034;73.150;2023-11-18T09:34:44;12.30;;;1.93;;
72761;SDS011;60886;55.034;73.150;2023-11-18T09:37:45;7.43;;;1.80;;
72761;SDS011;60886;55.034;73.150;2023-11-18T09:40:47;7.22;;;1.90;;
72761;SDS011;60886;55.034;73.150;2023-11-18T09:43:53;8.05;;;2.28;;
72761;SDS011;60886;55.034;73.150;2023-11-18T09:46:57;11.07;;;2.40;;
72761;SDS011;60886;55.034;73.150;2023-11-18T09:50:06;7.73;;;2.33;;
72761;SDS011;60886;55.034;73.150;2023-11-18T09:53:11;7.95;;;2.25;;
72761;SDS011;60886;55.034;73.150;2023-11-18T09:56:17;6.80;;;2.00;;
72761;SDS011;60886;55.034;73.150;2023-11-18T10:02:47;7.25;;;2.50;;
72761;SDS011;60886;55.034;73.150;2023-11-18T10:05:51;10.33;;;2.40;;
72761;SDS011;60886;55.034;73.150;2023-11-18T10:08:55;6.82;;;1.92;;
72761;SDS011;60886;55.034;73.150;2023-11-18T10:11:57;9.20;;;2.93;;
72761;SDS011;60886;55.034;73.150;2023-11-18T10:15:07;7.03;;;2.43;;
72761;SDS011;60886;55.034;73.150;2023-11-18T10:18:12;8.80;;;2.25;;
72761;SDS011;60886;55.034;73.150;2023-11-18T10:21:34;8.13;;;3.00;;
72761;SDS011;60886;55.034;73.150;2023-11-18T10:24:45;8.70;;;2.60;;
72761;SDS011;60886;55.034;73.150;2023-11-18T10:27:46;8.38;;;2.28;;
72761;SDS011;60886;55.034;73.150;2023-11-18T10:30:48;5.80;;;1.80;;
72761;SDS011;60886;55.034;73.150;2023-11-18T10:33:49;6.25;;;1.70;;
72761;SDS011;60886;55.034;73.150;2023-11-18T10:36:58;7.23;;;2.00;;
72761;SDS011;60886;55.034;73.150;2023-11-18T10:40:04;6.03;;;1.53;;
72761;SDS011;60886;55.034;73.150;2023-11-18T10:43:06;8.07;;;2.58;;
72761;SDS011;60886;55.034;73.150;2023-11-18T10:46:12;8.80;;;1.90;;
72761;SDS011;60886;55.034;73.150;2023-11-18T10:49:21;6.87;;;1.88;;
72761;SDS011;60886;55.034;73.150;2023-11-18T10:52:26;7.88;;;1.90;;
72761;SDS011;60886;55.034;73.150;2023-11-18T10:55:39;8.47;;;2.27;;
72761;SDS011;60886;55.034;73.150;2023-11-18T10:58:41;6.90;;;2.10;;
72761;SDS011;60886;55.034;73.150;2023-11-18T11:01:43;8.93;;;1.90;;
72761;SDS011;60886;55.034;73.150;2023-11-18T11:04:45;13.80;;;3.23;;
72761;SDS011;60886;55.034;73.150;2023-11-18T11:07:49;8.45;;;1.90;;
72761;SDS011;60886;55.034;73.150;2023-11-18T11:10:52;6.90;;;1.60;;
72761;SDS011;60886;55.034;73.150;2023-11-18T11:14:02;5.90;;;1.80;;
72761;SDS011;60886;55.034;73.150;2023-11-18T11:17:06;9.90;;;1.77;;
72761;SDS011;60886;55.034;73.150;2023-11-18T11:20:12;7.05;;;1.58;;
72761;SDS011;60886;55.034;73.150;2023-11-18T11:23:30;8.23;;;1.67;;
72761;SDS011;60886;55.034;73.150;2023-11-18T11:26:47;5.53;;;1.40;;
72761;SDS011;60886;55.034;73.150;2023-11-18T11:30:32;6.87;;;1.60;;
72761;SDS011;60886;55.034;73.150;2023-11-18T11:33:33;5.78;;;1.30;;
72761;SDS011;60886;55.034;73.150;2023-11-18T11:36:44;7.05;;;1.30;;
72761;SDS011;60886;55.034;73.150;2023-11-18T11:39:52;6.00;;;1.30;;
72761;SDS011;60886;55.034;73.150;2023-11-18T11:42:55;4.13;;;1.05;;
72761;SDS011;60886;55.034;73.150;2023-11-18T11:45:57;4.27;;;1.00;;
72761;SDS011;60886;55.034;73.150;2023-11-18T11:49:00;6.35;;;1.30;;
72761;SDS011;60886;55.034;73.150;2023-11-18T11:52:10;6.43;;;1.55;;
72761;SDS011;60886;55.034;73.150;2023-11-18T11:55:38;6.83;;;1.57;;
72761;SDS011;60886;55.034;73.150;2023-11-18T11:58:47;6.47;;;1.60;;
72761;SDS011;60886;55.034;73.150;2023-11-18T12:01:54;7.20;;;1.70;;
72761;SDS011;60886;55.034;73.150;2023-11-18T12:04:58;8.00;;;1.70;;
72761;SDS011;60886;55.034;73.150;2023-11-18T12:08:07;7.40;;;1.73;;
72761;SDS011;60886;55.034;73.150;2023-11-18T12:11:13;7.82;;;1.95;;
72761;SDS011;60886;55.034;73.150;2023-11-18T12:14:21;6.97;;;1.67;;
72761;SDS011;60886;55.034;73.150;2023-11-18T12:17:23;8.48;;;1.70;;
72761;SDS011;60886;55.034;73.150;2023-11-18T12:20:41;8.27;;;1.77;;
72761;SDS011;60886;55.034;73.150;2023-11-18T12:24:17;6.40;;;1.80;;
72761;SDS011;60886;55.034;73.150;2023-11-18T12:30:41;4.88;;;1.40;;
72761;SDS011;60886;55.034;73.150;2023-11-18T12:34:00;5.53;;;1.27;;
72761;SDS011;60886;55.034;73.150;2023-11-18T12:37:17;5.88;;;1.73;;
72761;SDS011;60886;55.034;73.150;2023-11-18T12:40:56;6.67;;;1.50;;
72761;SDS011;60886;55.034;73.150;2023-11-18T12:47:24;6.72;;;1.17;;
72761;SDS011;60886;55.034;73.150;2023-11-18T12:50:29;5.00;;;1.33;;
72761;SDS011;60886;55.034;73.150;2023-11-18T12:53:33;6.05;;;1.40;;
72761;SDS011;60886;55.034;73.150;2023-11-18T12:56:37;7.28;;;2.20;;
72761;SDS011;60886;55.034;73.150;2023-11-18T12:59:40;5.47;;;1.30;;
72761;SDS011;60886;55.034;73.150;2023-11-18T13:02:57;4.97;;;0.70;;
72761;SDS011;60886;55.034;73.150;2023-11-18T13:05:59;3.10;;;0.80;;
72761;SDS011;60886;55.034;73.150;2023-11-18T13:09:00;3.15;;;0.65;;
72761;SDS011;60886;55.034;73.150;2023-11-18T13:12:11;6.43;;;1.47;;
72761;SDS011;60886;55.034;73.150;2023-11-18T13:15:34;5.28;;;0.90;;
72761;SDS011;60886;55.034;73.150;2023-11-18T13:18:44;9.75;;;2.92;;
72761;SDS011;60886;55.034;73.150;2023-11-18T13:21:50;3.25;;;0.90;;
72761;SDS011;60886;55.034;73.150;2023-11-18T13:25:04;5.57;;;1.33;;
72761;SDS011;60886;55.034;73.150;2023-11-18T13:28:07;7.55;;;2.08;;
72761;SDS011;60886;55.034;73.150;2023-11-18T13:31:26;8.38;;;2.20;;
72761;SDS011;60886;55.034;73.150;2023-11-18T13:34:28;6.60;;;1.92;;
72761;SDS011;60886;55.034;73.150;2023-11-18T13:37:53;5.53;;;1.60;;
72761;SDS011;60886;55.034;73.150;2023-11-18T13:40:55;7.57;;;1.67;;
72761;SDS011;60886;55.034;73.150;2023-11-18T13:43:57;5.03;;;1.23;;
72761;SDS011;60886;55.034;73.150;2023-11-18T13:47:18;4.90;;;1.05;;
72761;SDS011;60886;55.034;73.150;2023-11-18T13:50:42;3.80;;;0.97;;
72761;SDS011;60886;55.034;73.150;2023-11-18T13:53:46;3.80;;;0.80;;
72761;SDS011;60886;55.034;73.150;2023-11-18T13:56:49;4.63;;;1.20;;
72761;SDS011;60886;55.034;73.150;2023-11-18T13:59:51;5.30;;;1.37;;
72761;SDS011;60886;55.034;73.150;2023-11-18T14:02:55;4.45;;;1.10;;
72761;SDS011;60886;55.034;73.150;2023-11-18T14:05:58;9.27;;;2.83;;
72761;SDS011;60886;55.034;73.150;2023-11-18T14:09:03;5.03;;;0.75;;
72761;SDS011;60886;55.034;73.150;2023-11-18T14:12:12;2.70;;;0.60;;
72761;SDS011;60886;55.034;73.150;2023-11-18T14:15:15;3.43;;;0.60;;
72761;SDS011;60886;55.034;73.150;2023-11-18T14:18:18;2.92;;;0.57;;
72761;SDS011;60886;55.034;73.150;2023-11-18T14:21:21;3.63;;;0.33;;
72761;SDS011;60886;55.034;73.150;2023-11-18T14:24:24;2.78;;;0.50;;
72761;SDS011;60886;55.034;73.150;2023-11-18T14:27:29;3.08;;;0.40;;
72761;SDS011;60886;55.034;73.150;2023-11-18T14:30:32;2.80;;;0.40;;
72761;SDS011;60886;55.034;73.150;2023-11-18T14:33:34;2.33;;;0.40;;
72761;SDS011;60886;55.034;73.150;2023-11-18T14:36:38;2.00;;;0.40;;
72761;SDS011;60886;55.034;73.150;2023-11-18T14:39:41;4.20;;;0.70;;
72761;SDS011;60886;55.034;73.150;2023-11-18T14:42:48;2.00;;;0.40;;
72761;SDS011;60886;55.034;73.150;2023-11-18T14:45:51;3.25;;;0.40;;
72761;SDS011;60886;55.034;73.150;2023-11-18T14:48:55;3.17;;;0.60;;
72761;SDS011;60886;55.034;73.150;2023-11-18T14:51:57;2.00;;;0.40;;
72761;SDS011;60886;55.034;73.150;2023-11-18T14:54:58;1.45;;;0.40;;
72761;SDS011;60886;55.034;73.150;2023-11-18T14:58:04;4.40;;;0.70;;
72761;SDS011;60886;55.034;73.150;2023-11-18T15:01:05;1.50;;;0.40;;
72761;SDS011;60886;55.034;73.150;2023-11-18T15:04:10;2.55;;;0.25;;
72761;SDS011;60886;55.034;73.150;2023-11-18T15:07:14;3.78;;;0.40;;
72761;SDS011;60886;55.034;73.150;2023-11-18T15:10:16;2.40;;;0.37;;
72761;SDS011;60886;55.034;73.150;2023-11-18T15:13:22;5.57;;;0.50;;
72761;SDS011;60886;55.034;73.150;2023-11-18T15:16:24;2.20;;;0.20;;
72761;SDS011;60886;55.034;73.150;2023-11-18T15:19:26;2.25;;;0.40;;
72761;SDS011;60886;55.034;73.150;2023-11-18T15:22:28;1.92;;;0.30;;
72761;SDS011;60886;55.034;73.150;2023-11-18T15:25:38;0.93;;;0.30;;
72761;SDS011;60886;55.034;73.150;2023-11-18T15:28:41;2.70;;;0.38;;
72761;SDS011;60886;55.034;73.150;2023-11-18T15:31:45;4.50;;;0.30;;
72761;SDS011;60886;55.034;73.150;2023-11-18T15:34:52;0.87;;;0.20;;
72761;SDS011;60886;55.034;73.150;2023-11-18T15:37:54;1.55;;;0.45;;
72761;SDS011;60886;55.034;73.150;2023-11-18T15:40:56;0.98;;;0.25;;
72761;SDS011;60886;55.034;73.150;2023-11-18T15:43:58;1.30;;;0.30;;
72761;SDS011;60886;55.034;73.150;2023-11-18T15:47:05;1.40;;;0.30;;
72761;SDS011;60886;55.034;73.150;2023-11-18T15:50:06;0.50;;;0.20;;
72761;SDS011;60886;55.034;73.150;2023-11-18T15:53:16;4.45;;;1.02;;
72761;SDS011;60886;55.034;73.150;2023-11-18T15:56:20;1.87;;;0.30;;
72761;SDS011;60886;55.034;73.150;2023-11-18T15:59:26;1.20;;;0.30;;
72761;SDS011;60886;55.034;73.150;2023-11-18T16:02:28;1.13;;;0.30;;
72761;SDS011;60886;55.034;73.150;2023-11-18T16:05:31;1.43;;;0.33;;
72761;SDS011;60886;55.034;73.150;2023-11-18T16:08:34;1.27;;;0.30;;
72761;SDS011;60886;55.034;73.150;2023-11-18T16:11:37;0.90;;;0.20;;
72761;SDS011;60886;55.034;73.150;2023-11-18T16:14:40;2.63;;;0.47;;
72761;SDS011;60886;55.034;73.150;2023-11-18T16:17:45;0.65;;;0.20;;
72761;SDS011;60886;55.034;73.150;2023-11-18T16:20:47;0.85;;;0.00;;
72761;SDS011;60886;55.034;73.150;2023-11-18T16:23:50;0.80;;;0.20;;
72761;SDS011;60886;55.034;73.150;2023-11-18T16:26:53;0.97;;;0.20;;
72761;SDS011;60886;55.034;73.150;2023-11-18T16:29:58;2.00;;;0.20;;
72761;SDS011;60886;55.034;73.150;2023-11-18T16:33:00;0.47;;;0.10;;
72761;SDS011;60886;55.034;73.150;2023-11-18T16:36:06;0.60;;;0.20;;
72761;SDS011;60886;55.034;73.150;2023-11-18T16:39:08;0.00;;;0.00;;
72761;SDS011;60886;55.034;73.150;2023-11-18T16:42:10;8.60;;;0.30;;
72761;SDS011;60886;55.034;73.150;2023-11-18T16:45:12;0.45;;;0.08;;
72761;SDS011;60886;55.034;73.150;2023-11-18T16:48:17;3.20;;;0.30;;
72761;SDS011;60886;55.034;73.150;2023-11-18T16:51:19;0.90;;;0.20;;
72761;SDS011;60886;55.034;73.150;2023-11-18T16:54:21;0.73;;;0.10;;
